createdAt,value
2018-08-09T00:00:21.755Z,9.10
2018-08-09T00:01:27.268Z,9.10
2018-08-09T00:02:32.749Z,10.17
2018-08-09T00:03:38.198Z,9.50
2018-08-09T00:04:43.689Z,9.97
2018-08-09T00:05:49.195Z,10.40
2018-08-09T00:06:54.688Z,10.03
2018-08-09T00:08:00.129Z,10.73
2018-08-09T00:09:07.925Z,11.23
2018-08-09T00:10:13.377Z,9.70
2018-08-09T00:11:18.901Z,11.40
2018-08-09T00:12:24.388Z,10.27
2018-08-09T00:13:29.832Z,11.80
2018-08-09T00:14:35.237Z,10.50
2018-08-09T00:15:40.736Z,11.70
2018-08-09T00:16:46.285Z,11.53
2018-08-09T00:17:51.824Z,10.43
2018-08-09T00:18:57.278Z,11.97
2018-08-09T00:20:02.678Z,11.17
2018-08-09T00:21:08.098Z,11.97
2018-08-09T00:22:13.634Z,12.40
2018-08-09T00:23:19.186Z,11.93
2018-08-09T00:24:24.630Z,11.40
2018-08-09T00:25:30.189Z,11.70
2018-08-09T00:26:35.583Z,11.27
2018-08-09T00:27:41.034Z,11.60
2018-08-09T00:28:46.691Z,12.70
2018-08-09T00:29:52.141Z,12.63
2018-08-09T00:30:57.614Z,11.90
2018-08-09T00:32:03.069Z,11.70
2018-08-09T00:33:08.577Z,13.20
2018-08-09T00:34:14.085Z,11.40
2018-08-09T00:35:19.560Z,12.40
2018-08-09T00:36:25.104Z,11.13
2018-08-09T00:37:30.548Z,11.77
2018-08-09T00:38:36.319Z,12.03
2018-08-09T00:39:41.709Z,12.67
2018-08-09T00:40:47.314Z,11.90
2018-08-09T00:41:52.733Z,12.60
2018-08-09T00:42:58.128Z,12.63
2018-08-09T00:44:03.597Z,12.60
2018-08-09T00:45:09.129Z,12.07
2018-08-09T00:46:14.654Z,11.20
2018-08-09T00:47:20.181Z,11.20
2018-08-09T00:48:25.624Z,12.03
2018-08-09T00:49:31.154Z,10.20
2018-08-09T00:50:36.648Z,9.93
2018-08-09T00:51:42.074Z,10.77
2018-08-09T00:52:47.560Z,10.43
2018-08-09T00:53:53.065Z,10.20
2018-08-09T00:54:58.481Z,10.40
2018-08-09T00:56:03.982Z,10.93
2018-08-09T00:57:09.796Z,11.40
2018-08-09T00:58:15.303Z,10.70
2018-08-09T00:59:20.789Z,11.13
2018-08-09T01:00:26.260Z,11.10
2018-08-09T01:01:31.669Z,11.37
2018-08-09T01:02:37.142Z,12.37
2018-08-09T01:03:42.574Z,12.33
2018-08-09T01:04:48.069Z,12.10
2018-08-09T01:05:53.537Z,12.47
2018-08-09T01:06:58.983Z,11.33
2018-08-09T01:08:04.429Z,11.00
2018-08-09T01:09:10.304Z,11.23
2018-08-09T01:10:15.825Z,10.97
2018-08-09T01:11:21.253Z,11.93
2018-08-09T01:12:26.713Z,12.30
2018-08-09T01:13:32.180Z,10.90
2018-08-09T01:14:38.078Z,11.63
2018-08-09T01:15:43.615Z,12.27
2018-08-09T01:16:49.169Z,11.53
2018-08-09T01:17:54.630Z,11.10
2018-08-09T01:19:00.081Z,11.60
2018-08-09T01:20:06.709Z,11.10
2018-08-09T01:21:12.237Z,11.00
2018-08-09T01:22:17.837Z,10.63
2018-08-09T01:23:23.228Z,10.70
2018-08-09T01:24:28.667Z,11.30
2018-08-09T01:25:34.208Z,11.30
2018-08-09T01:26:40.148Z,11.53
2018-08-09T01:27:45.673Z,10.00
2018-08-09T01:28:51.139Z,11.10
2018-08-09T01:29:56.840Z,11.70
2018-08-09T01:31:02.259Z,12.47
2018-08-09T01:32:07.831Z,12.10
2018-08-09T01:33:13.252Z,12.23
2018-08-09T01:34:18.724Z,12.07
2018-08-09T01:35:24.237Z,13.10
2018-08-09T01:36:29.776Z,12.00
2018-08-09T01:37:35.268Z,13.10
2018-08-09T01:38:40.660Z,11.57
2018-08-09T01:39:46.170Z,13.30
2018-08-09T01:40:51.777Z,14.23
2018-08-09T01:42:14.156Z,13.07
2018-08-09T01:43:36.488Z,13.83
2018-08-09T01:44:41.969Z,12.90
2018-08-09T01:45:47.472Z,13.87
2018-08-09T01:46:53.050Z,13.10
2018-08-09T01:47:58.508Z,12.80
2018-08-09T01:49:03.987Z,10.73
2018-08-09T01:50:09.437Z,12.53
2018-08-09T01:51:14.953Z,11.83
2018-08-09T01:52:20.461Z,12.50
2018-08-09T01:53:26.352Z,11.97
2018-08-09T01:54:31.768Z,11.40
2018-08-09T01:55:37.180Z,13.37
2018-08-09T01:56:42.639Z,12.40
2018-08-09T01:57:48.257Z,12.10
2018-08-09T01:58:54.369Z,12.10
2018-08-09T02:00:00.069Z,12.83
2018-08-09T02:01:05.522Z,12.27
2018-08-09T02:02:11.050Z,11.87
2018-08-09T02:03:16.543Z,12.17
2018-08-09T02:04:22.408Z,12.47
2018-08-09T02:05:27.838Z,11.80
2018-08-09T02:06:33.293Z,11.80
2018-08-09T02:07:38.690Z,12.57
2018-08-09T02:08:44.503Z,12.67
2018-08-09T02:09:49.990Z,11.90
2018-08-09T02:10:55.523Z,11.50
2018-08-09T02:12:01.408Z,11.50
2018-08-09T02:13:06.857Z,11.97
2018-08-09T02:14:12.244Z,11.97
2018-08-09T02:15:17.823Z,11.33
2018-08-09T02:16:23.316Z,11.03
2018-08-09T02:17:28.783Z,11.40
2018-08-09T02:18:34.239Z,12.37
2018-08-09T02:19:40.101Z,12.47
2018-08-09T02:20:45.636Z,11.63
2018-08-09T02:21:51.104Z,11.90
2018-08-09T02:22:56.576Z,13.13
2018-08-09T02:24:02.054Z,13.30
2018-08-09T02:25:07.545Z,12.67
2018-08-09T02:26:13.018Z,12.47
2018-08-09T02:27:18.610Z,11.40
2018-08-09T02:28:24.053Z,11.53
2018-08-09T02:29:29.519Z,12.27
2018-08-09T02:30:34.973Z,11.63
2018-08-09T02:31:40.413Z,11.33
2018-08-09T02:32:45.923Z,11.53
2018-08-09T02:33:51.565Z,12.40
2018-08-09T02:34:56.982Z,12.03
2018-08-09T02:36:02.453Z,13.30
2018-08-09T02:37:07.929Z,12.37
2018-08-09T02:38:13.479Z,13.50
2018-08-09T02:39:18.955Z,14.83
2018-08-09T02:40:24.489Z,13.73
2018-08-09T02:41:29.947Z,14.67
2018-08-09T02:42:35.372Z,14.23
2018-08-09T02:43:40.812Z,13.20
2018-08-09T02:44:46.228Z,11.03
2018-08-09T02:45:51.716Z,11.20
2018-08-09T02:46:57.241Z,11.23
2018-08-09T02:48:02.673Z,11.80
2018-08-09T02:49:08.120Z,12.10
2018-08-09T02:50:13.592Z,12.77
2018-08-09T02:51:19.192Z,11.70
2018-08-09T02:52:24.673Z,11.13
2018-08-09T02:53:30.138Z,11.63
2018-08-09T02:54:35.571Z,11.40
2018-08-09T02:55:41.139Z,11.13
2018-08-09T02:56:46.658Z,10.80
2018-08-09T02:57:52.136Z,11.30
2018-08-09T02:58:57.712Z,10.50
2018-08-09T03:00:03.142Z,11.47
2018-08-09T03:01:09.088Z,12.20
2018-08-09T03:02:14.589Z,11.10
2018-08-09T03:03:20.109Z,13.53
2018-08-09T03:04:25.596Z,12.03
2018-08-09T03:05:31.058Z,11.93
2018-08-09T03:06:36.449Z,12.13
2018-08-09T03:07:42.202Z,12.37
2018-08-09T03:08:47.676Z,13.83
2018-08-09T03:09:53.204Z,14.17
2018-08-09T03:10:58.664Z,13.67
2018-08-09T03:12:04.160Z,13.90
2018-08-09T03:13:10.022Z,13.93
2018-08-09T03:14:15.432Z,15.60
2018-08-09T03:15:20.915Z,16.57
2018-08-09T03:16:26.332Z,15.63
2018-08-09T03:17:31.787Z,14.03
2018-08-09T03:18:37.700Z,14.10
2018-08-09T03:19:43.162Z,12.77
2018-08-09T03:20:48.611Z,13.10
2018-08-09T03:21:54.046Z,13.10
2018-08-09T03:22:59.506Z,13.30
2018-08-09T03:24:05.132Z,15.27
2018-08-09T03:25:10.538Z,16.33
2018-08-09T03:26:16.000Z,17.43
2018-08-09T03:27:21.482Z,15.87
2018-08-09T03:28:26.936Z,15.63
2018-08-09T03:29:32.470Z,16.53
2018-08-09T03:30:37.922Z,18.20
2018-08-09T03:31:43.372Z,16.80
2018-08-09T03:32:48.879Z,17.00
2018-08-09T03:33:54.359Z,16.93
2018-08-09T03:34:59.843Z,15.40
2018-08-09T03:36:05.473Z,16.80
2018-08-09T03:37:10.907Z,16.50
2018-08-09T03:38:16.384Z,16.40
2018-08-09T03:39:21.884Z,17.27
2018-08-09T03:40:27.323Z,15.67
2018-08-09T03:41:32.765Z,17.20
2018-08-09T03:42:38.285Z,16.50
2018-08-09T03:43:43.697Z,14.47
2018-08-09T03:44:49.249Z,13.93
2018-08-09T03:45:54.756Z,11.87
2018-08-09T03:47:00.172Z,11.70
2018-08-09T03:48:05.775Z,12.87
2018-08-09T03:49:11.205Z,12.30
2018-08-09T03:50:16.694Z,12.67
2018-08-09T03:51:22.124Z,13.10
2018-08-09T03:52:27.533Z,11.90
2018-08-09T03:53:33.016Z,12.47
2018-08-09T03:54:38.557Z,12.47
2018-08-09T03:55:44.116Z,12.60
2018-08-09T03:56:49.569Z,12.30
2018-08-09T03:57:55.324Z,12.40
2018-08-09T03:59:11.867Z,12.17
2018-08-09T04:00:17.350Z,11.70
2018-08-09T04:01:22.826Z,12.90
2018-08-09T04:02:28.308Z,12.10
2018-08-09T04:03:33.766Z,12.70
2018-08-09T04:04:39.172Z,14.47
2018-08-09T04:05:44.610Z,13.10
2018-08-09T04:06:50.155Z,12.97
2018-08-09T04:07:55.612Z,12.10
2018-08-09T04:09:01.065Z,12.37
2018-08-09T04:10:07.384Z,12.40
2018-08-09T04:11:12.820Z,13.47
2018-08-09T04:12:18.684Z,13.10
2018-08-09T04:13:24.105Z,12.63
2018-08-09T04:14:30.184Z,13.47
2018-08-09T04:15:35.668Z,13.60
2018-08-09T04:16:41.085Z,14.00
2018-08-09T04:17:46.577Z,14.17
2018-08-09T04:18:52.596Z,14.70
2018-08-09T04:19:58.225Z,15.10
2018-08-09T04:21:03.662Z,14.13
2018-08-09T04:22:09.084Z,13.70
2018-08-09T04:23:14.489Z,13.80
2018-08-09T04:24:19.993Z,14.10
2018-08-09T04:25:25.476Z,13.87
2018-08-09T04:26:31.446Z,14.80
2018-08-09T04:27:36.857Z,15.50
2018-08-09T04:28:42.232Z,16.00
2018-08-09T04:29:47.711Z,14.53
2018-08-09T04:30:53.177Z,15.20
2018-08-09T04:31:58.704Z,15.80
2018-08-09T04:33:04.161Z,15.50
2018-08-09T04:34:09.606Z,16.77
2018-08-09T04:35:15.081Z,14.90
2018-08-09T04:36:20.580Z,15.10
2018-08-09T04:37:26.425Z,13.30
2018-08-09T04:38:31.841Z,14.53
2018-08-09T04:39:37.578Z,14.03
2018-08-09T04:40:43.012Z,13.40
2018-08-09T04:41:48.545Z,12.40
2018-08-09T04:42:53.994Z,12.50
2018-08-09T04:43:59.412Z,11.97
2018-08-09T04:45:05.281Z,12.93
2018-08-09T04:46:10.754Z,13.47
2018-08-09T04:47:16.377Z,14.27
2018-08-09T04:48:21.824Z,13.00
2018-08-09T04:49:27.292Z,11.67
2018-08-09T04:50:32.732Z,11.60
2018-08-09T04:51:38.160Z,11.00
2018-08-09T04:52:43.629Z,11.70
2018-08-09T04:53:49.114Z,11.83
2018-08-09T04:54:54.592Z,10.90
2018-08-09T04:56:00.199Z,11.57
2018-08-09T04:57:05.659Z,12.07
2018-08-09T04:58:11.163Z,12.70
2018-08-09T04:59:16.605Z,12.60
2018-08-09T05:00:22.101Z,11.67
2018-08-09T05:01:27.524Z,11.83
2018-08-09T05:02:32.964Z,12.30
2018-08-09T05:03:38.480Z,11.97
2018-08-09T05:04:43.925Z,12.60
2018-08-09T05:05:49.385Z,11.30
2018-08-09T05:06:54.793Z,12.40
2018-08-09T05:08:00.209Z,11.00
2018-08-09T05:09:09.348Z,12.50
2018-08-09T05:10:14.887Z,11.60
2018-08-09T05:11:20.262Z,11.27
2018-08-09T05:12:25.790Z,10.90
2018-08-09T05:13:31.252Z,12.07
2018-08-09T05:14:36.754Z,11.20
2018-08-09T05:15:42.180Z,11.83
2018-08-09T05:16:47.650Z,11.40
2018-08-09T05:17:53.082Z,12.00
2018-08-09T05:18:58.526Z,13.80
2018-08-09T05:20:04.514Z,14.70
2018-08-09T05:21:10.328Z,14.70
2018-08-09T05:22:15.812Z,15.17
2018-08-09T05:23:21.301Z,14.63
2018-08-09T05:24:26.723Z,14.00
2018-08-09T05:25:32.152Z,15.30
2018-08-09T05:26:37.583Z,14.63
2018-08-09T05:27:43.113Z,13.27
2018-08-09T05:28:48.581Z,15.00
2018-08-09T05:29:54.013Z,13.77
2018-08-09T05:30:59.416Z,13.80
2018-08-09T05:32:05.253Z,15.10
2018-08-09T05:33:10.752Z,14.90
2018-08-09T05:34:17.005Z,15.53
2018-08-09T05:35:22.522Z,14.60
2018-08-09T05:36:27.967Z,15.30
2018-08-09T05:37:33.424Z,15.57
2018-08-09T05:38:38.951Z,15.20
2018-08-09T05:39:44.430Z,17.70
2018-08-09T05:40:49.944Z,15.93
2018-08-09T05:41:55.372Z,15.97
2018-08-09T05:43:00.856Z,17.30
2018-08-09T05:44:06.372Z,17.23
2018-08-09T05:45:11.797Z,18.43
2018-08-09T05:46:17.390Z,17.90
2018-08-09T05:47:22.876Z,18.00
2018-08-09T05:48:28.266Z,16.77
2018-08-09T05:49:33.730Z,18.43
2018-08-09T05:50:39.137Z,19.13
2018-08-09T05:51:44.572Z,17.70
2018-08-09T05:52:50.132Z,20.03
2018-08-09T05:53:55.572Z,18.47
2018-08-09T05:55:01.108Z,19.30
2018-08-09T05:56:07.267Z,18.90
2018-08-09T05:57:12.790Z,19.30
2018-08-09T05:58:18.406Z,19.43
2018-08-09T05:59:24.124Z,19.63
2018-08-09T06:00:29.598Z,19.73
2018-08-09T06:01:35.076Z,19.20
2018-08-09T06:02:40.517Z,18.63
2018-08-09T06:03:46.073Z,19.73
2018-08-09T06:04:51.553Z,19.17
2018-08-09T06:05:57.060Z,17.20
2018-08-09T06:07:02.491Z,17.40
2018-08-09T06:08:07.964Z,18.93
2018-08-09T06:09:14.123Z,18.10
2018-08-09T06:10:19.654Z,17.27
2018-08-09T06:11:25.289Z,18.70
2018-08-09T06:12:31.376Z,17.60
2018-08-09T06:13:36.877Z,18.57
2018-08-09T06:14:42.291Z,17.67
2018-08-09T06:15:48.296Z,17.13
2018-08-09T06:16:53.928Z,17.90
2018-08-09T06:17:59.474Z,16.97
2018-08-09T06:19:05.476Z,16.57
2018-08-09T06:20:10.928Z,16.33
2018-08-09T06:21:16.459Z,16.30
2018-08-09T06:22:21.945Z,16.13
2018-08-09T06:23:27.385Z,14.93
2018-08-09T06:24:32.792Z,15.63
2018-08-09T06:25:38.344Z,15.97
2018-08-09T06:26:43.810Z,15.63
2018-08-09T06:27:49.272Z,15.40
2018-08-09T06:28:54.785Z,16.03
2018-08-09T06:30:00.249Z,14.73
2018-08-09T06:31:06.196Z,15.37
2018-08-09T06:32:11.654Z,14.13
2018-08-09T06:33:17.173Z,16.10
2018-08-09T06:34:22.688Z,16.03
2018-08-09T06:35:28.168Z,16.03
2018-08-09T06:36:33.652Z,15.37
2018-08-09T06:37:39.416Z,15.00
2018-08-09T06:38:45.017Z,14.00
2018-08-09T06:39:50.524Z,15.90
2018-08-09T06:40:56.045Z,15.40
2018-08-09T06:42:01.452Z,14.70
2018-08-09T06:43:06.961Z,14.00
2018-08-09T06:44:12.444Z,15.77
2018-08-09T06:45:17.920Z,13.47
2018-08-09T06:46:23.373Z,13.40
2018-08-09T06:47:28.834Z,13.20
2018-08-09T06:48:34.252Z,13.37
2018-08-09T06:49:39.721Z,15.50
2018-08-09T06:50:45.175Z,14.27
2018-08-09T06:51:50.770Z,13.87
2018-08-09T06:52:56.260Z,13.20
2018-08-09T06:54:01.694Z,12.80
2018-08-09T06:55:07.821Z,12.03
2018-08-09T06:56:13.341Z,13.20
2018-08-09T06:57:18.920Z,12.57
2018-08-09T06:58:24.469Z,13.30
2018-08-09T06:59:29.885Z,11.70
2018-08-09T07:00:35.392Z,12.80
2018-08-09T07:01:40.857Z,11.67
2018-08-09T07:02:46.356Z,11.57
2018-08-09T07:03:51.865Z,11.87
2018-08-09T07:04:57.272Z,10.97
2018-08-09T07:06:02.789Z,11.70
2018-08-09T07:07:08.238Z,10.40
2018-08-09T07:08:13.690Z,10.53
2018-08-09T07:09:19.145Z,10.23
2018-08-09T07:10:24.601Z,10.90
2018-08-09T07:11:30.414Z,10.20
2018-08-09T07:12:35.885Z,10.57
2018-08-09T07:13:41.316Z,9.27
2018-08-09T07:14:46.857Z,10.40
2018-08-09T07:15:52.408Z,10.73
2018-08-09T07:16:57.854Z,10.40
2018-08-09T07:18:03.317Z,10.17
2018-08-09T07:19:08.764Z,8.77
2018-08-09T07:20:14.299Z,10.00
2018-08-09T07:21:20.097Z,8.30
2018-08-09T07:22:25.577Z,8.53
2018-08-09T07:23:31.051Z,9.23
2018-08-09T07:24:36.480Z,10.80
2018-08-09T07:25:41.892Z,8.53
2018-08-09T07:26:47.763Z,8.80
2018-08-09T07:27:53.348Z,8.00
2018-08-09T07:28:58.837Z,10.53
2018-08-09T07:30:05.775Z,8.00
2018-08-09T07:31:11.196Z,9.33
2018-08-09T07:32:17.301Z,9.40
2018-08-09T07:33:22.801Z,8.00
2018-08-09T07:34:28.282Z,9.33
2018-08-09T07:35:33.736Z,8.77
2018-08-09T07:36:39.207Z,8.73
2018-08-09T07:37:44.740Z,7.97
2018-08-09T07:38:50.217Z,8.70
2018-08-09T07:39:55.683Z,8.17
2018-08-09T07:41:01.189Z,8.37
2018-08-09T07:42:06.701Z,9.27
2018-08-09T07:43:12.261Z,8.27
2018-08-09T07:44:18.182Z,8.30
2018-08-09T07:45:23.684Z,9.03
2018-08-09T07:46:29.089Z,6.90
2018-08-09T07:47:34.519Z,6.70
2018-08-09T07:48:40.456Z,7.93
2018-08-09T07:49:46.046Z,7.37
2018-08-09T07:50:51.644Z,6.93
2018-08-09T07:51:57.153Z,7.33
2018-08-09T07:53:02.599Z,6.70
2018-08-09T07:54:08.123Z,7.47
2018-08-09T07:55:13.887Z,6.07
2018-08-09T07:56:19.605Z,6.20
2018-08-09T07:57:25.116Z,6.60
2018-08-09T07:58:30.597Z,7.90
2018-08-09T07:59:36.097Z,7.00
2018-08-09T08:00:41.509Z,7.50
2018-08-09T08:01:47.436Z,6.80
2018-08-09T08:02:52.893Z,6.30
2018-08-09T08:03:58.352Z,6.00
2018-08-09T08:05:03.853Z,6.03
2018-08-09T08:06:10.131Z,6.93
2018-08-09T08:07:15.585Z,6.80
2018-08-09T08:08:21.041Z,7.13
2018-08-09T08:09:26.450Z,6.37
2018-08-09T08:10:31.914Z,6.33
2018-08-09T08:11:37.357Z,5.47
2018-08-09T08:12:42.829Z,5.07
2018-08-09T08:13:48.628Z,4.97
2018-08-09T08:14:54.101Z,5.70
2018-08-09T08:15:59.574Z,5.23
2018-08-09T08:17:05.045Z,4.73
2018-08-09T08:18:10.582Z,5.30
2018-08-09T08:19:16.470Z,4.73
2018-08-09T08:20:22.183Z,4.90
2018-08-09T08:21:27.639Z,5.00
2018-08-09T08:22:33.326Z,5.30
2018-08-09T08:23:38.792Z,4.97
2018-08-09T08:24:44.457Z,4.80
2018-08-09T08:25:50.062Z,4.00
2018-08-09T08:26:55.787Z,4.80
2018-08-09T08:28:01.272Z,4.37
2018-08-09T08:29:06.785Z,4.20
2018-08-09T08:30:14.090Z,4.53
2018-08-09T08:31:19.750Z,4.00
2018-08-09T08:32:25.306Z,4.13
2018-08-09T08:33:30.762Z,5.57
2018-08-09T08:34:36.206Z,4.90
2018-08-09T08:35:41.647Z,4.17
2018-08-09T08:36:47.401Z,5.00
2018-08-09T08:37:52.889Z,4.73
2018-08-09T08:38:58.402Z,3.97
2018-08-09T08:40:03.836Z,3.53
2018-08-09T08:41:09.316Z,3.53
2018-08-09T08:42:14.781Z,3.27
2018-08-09T08:43:20.392Z,3.80
2018-08-09T08:44:25.901Z,3.50
2018-08-09T08:45:31.429Z,4.00
2018-08-09T08:46:36.857Z,4.70
2018-08-09T08:47:43.026Z,4.20
2018-08-09T08:48:48.560Z,4.10
2018-08-09T08:49:54.623Z,4.30
2018-08-09T08:51:00.137Z,4.40
2018-08-09T08:52:05.736Z,4.90
2018-08-09T08:53:11.253Z,4.53
2018-08-09T08:54:17.012Z,4.90
2018-08-09T08:55:22.974Z,4.53
2018-08-09T08:56:28.373Z,4.90
2018-08-09T08:57:33.844Z,4.70
2018-08-09T08:58:39.301Z,3.70
2018-08-09T08:59:44.766Z,4.77
2018-08-09T09:00:51.004Z,5.80
2018-08-09T09:01:56.485Z,6.20
2018-08-09T09:03:02.014Z,6.10
2018-08-09T09:04:09.247Z,6.10
2018-08-09T09:05:15.059Z,5.83
2018-08-09T09:06:20.572Z,5.87
2018-08-09T09:07:26.057Z,6.50
2018-08-09T09:08:31.557Z,5.23
2018-08-09T09:09:37.018Z,4.60
2018-08-09T09:10:42.760Z,5.87
2018-08-09T09:13:05.172Z,5.53
2018-08-09T09:14:11.188Z,6.80
2018-08-09T09:15:17.162Z,6.13
2018-08-09T09:16:22.764Z,5.27
2018-08-09T09:17:28.291Z,5.90
2018-08-09T09:18:33.884Z,4.90
2018-08-09T09:19:39.311Z,5.93
2018-08-09T09:20:44.852Z,6.13
2018-08-09T09:21:50.556Z,4.87
2018-08-09T09:22:56.469Z,5.20
2018-08-09T09:24:01.961Z,4.93
2018-08-09T09:25:08.518Z,4.63
2018-08-09T09:26:13.992Z,4.40
2018-08-09T09:27:19.494Z,4.63
2018-08-09T09:28:25.256Z,5.27
2018-08-09T09:29:30.753Z,4.50
2018-08-09T09:30:36.223Z,4.90
2018-08-09T09:31:41.693Z,4.67
2018-08-09T09:32:47.843Z,5.00
2018-08-09T09:33:53.618Z,4.70
2018-08-09T09:34:59.636Z,4.60
2018-08-09T09:36:05.100Z,4.53
2018-08-09T09:37:10.972Z,4.27
2018-08-09T09:38:16.441Z,4.50
2018-08-09T09:39:22.592Z,4.60
2018-08-09T09:40:28.101Z,5.20
2018-08-09T09:41:33.508Z,3.90
2018-08-09T09:42:40.114Z,3.50
2018-08-09T09:43:45.567Z,3.60
2018-08-09T09:44:51.452Z,3.97
2018-08-09T09:45:56.956Z,4.30
2018-08-09T09:47:02.388Z,4.53
2018-08-09T09:48:08.029Z,4.73
2018-08-09T09:49:13.475Z,4.83
2018-08-09T09:50:18.985Z,4.00
2018-08-09T09:51:24.508Z,4.53
2018-08-09T09:52:30.025Z,4.30
2018-08-09T09:53:35.508Z,3.90
2018-08-09T09:54:40.923Z,4.23
2018-08-09T09:55:46.390Z,3.97
2018-08-09T09:56:52.389Z,4.20
2018-08-09T09:57:58.061Z,4.47
2018-08-09T09:59:03.475Z,5.47
2018-08-09T10:00:15.055Z,4.60
2018-08-09T10:01:25.705Z,4.47
2018-08-09T10:02:31.133Z,3.67
2018-08-09T10:03:36.825Z,2.47
2018-08-09T10:04:42.725Z,3.30
2018-08-09T10:05:48.606Z,3.20
2018-08-09T10:06:54.133Z,3.57
2018-08-09T10:07:59.873Z,5.17
2018-08-09T10:09:10.501Z,4.40
2018-08-09T10:10:15.964Z,3.20
2018-08-09T10:11:21.738Z,3.20
2018-08-09T10:12:27.250Z,3.90
2018-08-09T10:13:32.974Z,3.40
2018-08-09T10:14:38.627Z,3.70
2018-08-09T10:15:44.101Z,3.43
2018-08-09T10:16:49.753Z,4.67
2018-08-09T10:17:55.284Z,4.30
2018-08-09T10:19:00.768Z,4.10
2018-08-09T10:20:07.510Z,3.90
2018-08-09T10:21:12.946Z,6.60
2018-08-09T10:22:18.455Z,3.47
2018-08-09T10:23:23.958Z,4.47
2018-08-09T10:24:29.480Z,3.73
2018-08-09T10:25:34.909Z,4.10
2018-08-09T10:26:40.366Z,3.30
2018-08-09T10:27:45.870Z,3.87
2018-08-09T10:28:51.574Z,3.13
2018-08-09T10:29:57.358Z,3.60
2018-08-09T10:31:02.787Z,3.23
2018-08-09T10:32:08.237Z,3.60
2018-08-09T10:33:13.736Z,3.33
2018-08-09T10:34:19.627Z,3.50
2018-08-09T10:35:25.162Z,3.73
2018-08-09T10:36:30.615Z,4.00
2018-08-09T10:37:36.115Z,3.90
2018-08-09T10:38:41.688Z,4.40
2018-08-09T10:39:47.229Z,4.23
2018-08-09T10:40:52.764Z,4.37
2018-08-09T10:41:58.223Z,3.13
2018-08-09T10:43:03.770Z,3.40
2018-08-09T10:44:09.261Z,5.30
2018-08-09T10:45:14.711Z,5.60
2018-08-09T10:46:20.406Z,5.67
2018-08-09T10:47:26.041Z,5.40
2018-08-09T10:48:31.516Z,5.03
2018-08-09T10:49:37.048Z,5.73
2018-08-09T10:50:42.484Z,5.83
2018-08-09T10:51:48.011Z,6.00
2018-08-09T10:52:53.561Z,6.57
2018-08-09T10:53:59.281Z,5.70
2018-08-09T10:55:05.049Z,6.40
2018-08-09T10:56:10.556Z,5.30
2018-08-09T10:57:16.000Z,5.70
2018-08-09T10:58:21.583Z,6.87
2018-08-09T10:59:27.084Z,6.47
2018-08-09T11:00:32.501Z,6.20
2018-08-09T11:01:37.963Z,7.17
2018-08-09T11:02:43.415Z,6.50
2018-08-09T11:03:49.015Z,6.43
2018-08-09T11:04:55.015Z,7.50
2018-08-09T11:06:00.749Z,6.57
2018-08-09T11:07:06.201Z,8.67
2018-08-09T11:08:11.728Z,7.47
2018-08-09T11:09:17.161Z,7.80
2018-08-09T11:10:23.040Z,8.40
2018-08-09T11:11:28.465Z,9.13
2018-08-09T11:12:33.889Z,9.10
2018-08-09T11:13:39.605Z,8.93
2018-08-09T11:14:45.111Z,8.60
2018-08-09T11:15:50.577Z,9.27
2018-08-09T11:16:56.078Z,9.17
2018-08-09T11:18:01.618Z,9.60
2018-08-09T11:19:07.109Z,9.53
2018-08-09T11:20:12.560Z,8.83
2018-08-09T11:21:24.593Z,9.40
2018-08-09T11:22:30.006Z,9.50
2018-08-09T11:23:35.515Z,9.40
2018-08-09T11:24:40.924Z,9.67
2018-08-09T11:25:46.445Z,10.47
2018-08-09T11:26:52.970Z,10.07
2018-08-09T11:27:58.473Z,9.50
2018-08-09T11:29:03.934Z,9.97
2018-08-09T11:30:09.444Z,14.30
2018-08-09T11:31:14.960Z,13.73
2018-08-09T11:32:20.993Z,15.33
2018-08-09T11:33:26.524Z,16.40
2018-08-09T11:34:31.961Z,18.63
2018-08-09T11:35:37.375Z,18.87
2018-08-09T11:36:42.792Z,19.70
2018-08-09T11:37:48.240Z,20.13
2018-08-09T11:38:54.209Z,21.00
2018-08-09T11:39:59.968Z,20.37
2018-08-09T11:41:05.441Z,21.83
2018-08-09T11:42:10.880Z,23.50
2018-08-09T11:43:16.413Z,25.30
2018-08-09T11:44:21.932Z,25.70
2018-08-09T11:45:27.444Z,26.47
2018-08-09T11:46:32.924Z,28.20
2018-08-09T11:47:38.350Z,26.43
2018-08-09T11:48:43.805Z,26.80
2018-08-09T11:49:49.611Z,28.87
2018-08-09T11:50:55.160Z,29.73
2018-08-09T11:52:00.573Z,31.30
2018-08-09T11:53:06.010Z,30.00
2018-08-09T11:54:11.446Z,31.00
2018-08-09T11:55:16.872Z,28.73
2018-08-09T11:56:22.558Z,26.60
2018-08-09T11:57:28.085Z,27.00
2018-08-09T11:58:33.517Z,28.47
2018-08-09T11:59:38.940Z,30.07
2018-08-09T12:00:44.353Z,31.43
2018-08-09T12:01:49.976Z,29.77
2018-08-09T12:02:55.653Z,27.90
2018-08-09T12:04:01.132Z,28.20
2018-08-09T12:05:06.765Z,26.80
2018-08-09T12:06:12.283Z,27.73
2018-08-09T12:07:17.791Z,28.40
2018-08-09T12:08:23.315Z,27.40
2018-08-09T12:09:28.740Z,26.70
2018-08-09T12:10:34.176Z,28.67
2018-08-09T12:11:40.583Z,26.70
2018-08-09T12:12:46.347Z,25.30
2018-08-09T12:13:51.977Z,28.83
2018-08-09T12:14:58.465Z,25.00
2018-08-09T12:16:03.916Z,28.13
2018-08-09T12:17:09.574Z,29.23
2018-08-09T12:18:15.085Z,29.30
2018-08-09T12:19:20.812Z,28.63
2018-08-09T12:20:26.389Z,30.47
2018-08-09T12:21:31.892Z,28.90
2018-08-09T12:22:38.243Z,29.60
2018-08-09T12:23:43.713Z,29.67
2018-08-09T12:24:50.331Z,28.97
2018-08-09T12:25:56.479Z,31.03
2018-08-09T12:27:02.051Z,30.00
2018-08-09T12:28:08.003Z,29.70
2018-08-09T12:29:14.507Z,28.60
2018-08-09T12:30:20.520Z,30.63
2018-08-09T12:31:26.405Z,31.47
2018-08-09T12:32:31.989Z,28.53
2018-08-09T12:33:37.514Z,28.90
2018-08-09T12:34:43.095Z,28.33
2018-08-09T12:35:49.595Z,31.40
2018-08-09T12:36:55.258Z,29.50
2018-08-09T12:38:01.931Z,31.17
2018-08-09T12:39:11.814Z,30.73
2018-08-09T12:40:17.270Z,29.20
2018-08-09T12:41:23.867Z,30.57
2018-08-09T12:42:29.721Z,30.03
2018-08-09T12:43:35.346Z,29.47
2018-08-09T12:44:40.913Z,31.50
2018-08-09T12:45:46.702Z,29.20
2018-08-09T12:46:52.931Z,31.23
2018-08-09T12:47:59.040Z,30.83
2018-08-09T12:49:04.539Z,31.30
2018-08-09T12:50:13.020Z,30.20
2018-08-09T12:51:19.026Z,30.87
2018-08-09T12:52:24.660Z,28.73
2018-08-09T12:53:30.402Z,27.93
2018-08-09T12:54:35.905Z,27.37
2018-08-09T12:55:41.416Z,29.13
2018-08-09T12:56:48.014Z,29.50
2018-08-09T12:57:54.062Z,28.17
2018-08-09T12:58:59.576Z,27.97
2018-08-09T13:00:06.574Z,27.90
2018-08-09T13:01:12.139Z,28.70
2018-08-09T13:02:17.982Z,28.43
2018-08-09T13:03:23.551Z,27.70
2018-08-09T13:04:28.996Z,29.73
2018-08-09T13:05:34.550Z,30.10
2018-08-09T13:06:40.061Z,30.63
2018-08-09T13:07:45.517Z,28.50
2018-08-09T13:08:51.297Z,28.13
2018-08-09T13:09:56.956Z,30.97
2018-08-09T13:11:02.450Z,27.00
2018-08-09T13:12:07.970Z,29.90
2018-08-09T13:13:13.504Z,30.77
2018-08-09T13:14:19.963Z,30.60
2018-08-09T13:15:25.806Z,30.53
2018-08-09T13:16:31.464Z,30.17
2018-08-09T13:17:37.049Z,28.00
2018-08-09T13:18:42.746Z,29.73
2018-08-09T13:19:48.232Z,28.43
2018-08-09T13:20:53.769Z,30.27
2018-08-09T13:21:59.235Z,29.40
2018-08-09T13:23:04.677Z,27.93
2018-08-09T13:24:10.208Z,30.20
2018-08-09T13:25:15.669Z,29.70
2018-08-09T13:26:21.216Z,30.43
2018-08-09T13:27:26.822Z,29.90
2018-08-09T13:28:32.285Z,28.40
2018-08-09T13:29:37.748Z,29.20
2018-08-09T13:30:43.204Z,30.30
2018-08-09T13:31:49.169Z,30.67
2018-08-09T13:32:54.790Z,30.70
2018-08-09T13:34:00.276Z,29.90
2018-08-09T13:35:06.456Z,29.07
2018-08-09T13:36:11.993Z,27.33
2018-08-09T13:37:17.645Z,27.80
2018-08-09T13:38:23.273Z,28.00
2018-08-09T13:39:28.925Z,28.70
2018-08-09T13:40:34.424Z,28.33
2018-08-09T13:41:40.439Z,28.80
2018-08-09T13:42:46.154Z,29.00
2018-08-09T13:43:51.791Z,27.40
2018-08-09T13:44:57.440Z,28.80
2018-08-09T13:46:03.028Z,28.70
2018-08-09T13:47:08.560Z,26.20
2018-08-09T13:48:14.084Z,29.20
2018-08-09T13:49:20.713Z,27.03
2018-08-09T13:50:26.269Z,28.17
2018-08-09T13:51:31.812Z,28.57
2018-08-09T13:52:37.359Z,29.00
2018-08-09T13:53:42.805Z,26.90
2018-08-09T13:54:48.726Z,29.30
2018-08-09T13:55:54.620Z,28.03
2018-08-09T13:57:00.268Z,28.40
2018-08-09T13:58:05.941Z,29.70
2018-08-09T13:59:11.384Z,28.07
2018-08-09T14:00:16.987Z,30.27
2018-08-09T14:01:22.930Z,30.80
2018-08-09T14:02:28.743Z,27.53
2018-08-09T14:03:34.241Z,28.43
2018-08-09T14:04:39.705Z,28.80
2018-08-09T14:05:45.161Z,27.70
2018-08-09T14:06:51.004Z,29.07
2018-08-09T14:07:56.604Z,28.80
2018-08-09T14:09:02.109Z,27.03
2018-08-09T14:10:08.880Z,28.30
2018-08-09T14:11:14.389Z,27.97
2018-08-09T14:12:19.982Z,27.73
2018-08-09T14:13:25.701Z,28.77
2018-08-09T14:14:31.637Z,28.70
2018-08-09T14:15:37.093Z,29.47